Almonte, Canada
Current Conditions -  °F | °C
As of 2:00 PM on Tuesday 21 Oct 2014 (Local Time) from CYOW Reporting Station
Overcast Overcast  
Wind Chill: 35°   Ceiling: 3500
Heat Index: 43°   Visibility: 15mi
Dew Point: 39°   Wind: 15mph
Humidity: 87%   Direction: 40°NE
Pressure: 30.02"   Gusts: NA
Location:  45.22°N, 76.2°W
Report Text: CYOW 211800Z 04013KT 15SM FEW009 SCT020 OVC035 06/04 A3002 RMK SF1SC2SC5 SLP170
Loading
Personal Weather Stations






























Interactive Weather Map
Tropical Storm Tracking
New forecast layout! Learn more

10-Day Weather Forecast

Advertisements
Track Severe Weather on mobile